sensor_id;sensor_type;location;lat;lon;timestamp;temperature;humidity
44277;DHT22;29973;43.742;1.236;2023-08-07T00:00:41;15.80;99.90
44277;DHT22;29973;43.742;1.236;2023-08-07T00:03:06;15.60;99.90
44277;DHT22;29973;43.742;1.236;2023-08-07T00:05:32;15.50;99.90
44277;DHT22;29973;43.742;1.236;2023-08-07T00:07:58;15.50;99.90
44277;DHT22;29973;43.742;1.236;2023-08-07T00:10:23;15.40;99.90
44277;DHT22;29973;43.742;1.236;2023-08-07T00:12:50;15.40;99.90
44277;DHT22;29973;43.742;1.236;2023-08-07T00:15:15;15.30;99.90
44277;DHT22;29973;43.742;1.236;2023-08-07T00:17:41;15.20;99.90
44277;DHT22;29973;43.742;1.236;2023-08-07T00:20:07;15.20;99.90
44277;DHT22;29973;43.742;1.236;2023-08-07T00:22:33;15.10;99.90
44277;DHT22;29973;43.742;1.236;2023-08-07T00:24:59;15.20;99.90
44277;DHT22;29973;43.742;1.236;2023-08-07T00:27:25;15.10;99.90
44277;DHT22;29973;43.742;1.236;2023-08-07T00:29:51;15.10;99.90
44277;DHT22;29973;43.742;1.236;2023-08-07T00:32:16;15.10;99.90
44277;DHT22;29973;43.742;1.236;2023-08-07T00:34:42;15.00;99.90
44277;DHT22;29973;43.742;1.236;2023-08-07T00:37:08;15.00;99.90
44277;DHT22;29973;43.742;1.236;2023-08-07T00:39:34;14.70;99.90
44277;DHT22;29973;43.742;1.236;2023-08-07T00:41:59;14.50;99.90
44277;DHT22;29973;43.742;1.236;2023-08-07T00:44:25;14.30;99.90
44277;DHT22;29973;43.742;1.236;2023-08-07T00:46:51;14.30;99.90
44277;DHT22;29973;43.742;1.236;2023-08-07T00:49:17;14.50;99.90
44277;DHT22;29973;43.742;1.236;2023-08-07T00:51:44;14.50;99.90
44277;DHT22;29973;43.742;1.236;2023-08-07T00:54:12;14.60;99.90
44277;DHT22;29973;43.742;1.236;2023-08-07T00:56:40;14.50;99.90
44277;DHT22;29973;43.742;1.236;2023-08-07T00:59:06;14.50;99.90
44277;DHT22;29973;43.742;1.236;2023-08-07T01:01:32;14.60;99.90
44277;DHT22;29973;43.742;1.236;2023-08-07T01:03:58;14.60;99.90
44277;DHT22;29973;43.742;1.236;2023-08-07T01:06:24;14.60;99.90
44277;DHT22;29973;43.742;1.236;2023-08-07T01:08:50;14.60;99.90
44277;DHT22;29973;43.742;1.236;2023-08-07T01:11:36;14.50;99.90
44277;DHT22;29973;43.742;1.236;2023-08-07T01:17:02;14.60;99.90
44277;DHT22;29973;43.742;1.236;2023-08-07T01:19:31;14.70;99.90
44277;DHT22;29973;43.742;1.236;2023-08-07T01:22:13;14.70;99.90
44277;DHT22;29973;43.742;1.236;2023-08-07T01:24:41;14.80;99.90
44277;DHT22;29973;43.742;1.236;2023-08-07T01:35:03;14.60;99.90
44277;DHT22;29973;43.742;1.236;2023-08-07T01:37:33;14.50;99.90
44277;DHT22;29973;43.742;1.236;2023-08-07T01:40:01;14.40;99.90
44277;DHT22;29973;43.742;1.236;2023-08-07T01:42:29;14.50;99.90
44277;DHT22;29973;43.742;1.236;2023-08-07T01:44:55;14.50;99.90
44277;DHT22;29973;43.742;1.236;2023-08-07T01:47:20;14.50;99.90
44277;DHT22;29973;43.742;1.236;2023-08-07T01:49:46;14.50;99.90
44277;DHT22;29973;43.742;1.236;2023-08-07T01:52:12;14.40;99.90
44277;DHT22;29973;43.742;1.236;2023-08-07T01:54:38;14.40;99.90
44277;DHT22;29973;43.742;1.236;2023-08-07T01:57:04;14.30;99.90
44277;DHT22;29973;43.742;1.236;2023-08-07T01:59:29;14.20;99.90
44277;DHT22;29973;43.742;1.236;2023-08-07T02:01:55;14.30;99.90
44277;DHT22;29973;43.742;1.236;2023-08-07T02:04:21;14.30;99.90
44277;DHT22;29973;43.742;1.236;2023-08-07T02:06:47;14.30;99.90
44277;DHT22;29973;43.742;1.236;2023-08-07T02:09:12;14.20;99.90
44277;DHT22;29973;43.742;1.236;2023-08-07T02:11:38;14.30;99.90
44277;DHT22;29973;43.742;1.236;2023-08-07T02:14:04;14.20;99.90
44277;DHT22;29973;43.742;1.236;2023-08-07T02:16:30;14.20;99.90
44277;DHT22;29973;43.742;1.236;2023-08-07T02:18:55;14.10;99.90
44277;DHT22;29973;43.742;1.236;2023-08-07T02:21:21;14.20;99.90
44277;DHT22;29973;43.742;1.236;2023-08-07T02:23:47;14.10;99.90
44277;DHT22;29973;43.742;1.236;2023-08-07T02:26:12;14.10;99.90
44277;DHT22;29973;43.742;1.236;2023-08-07T02:28:38;14.10;99.90
44277;DHT22;29973;43.742;1.236;2023-08-07T02:31:04;14.10;99.90
44277;DHT22;29973;43.742;1.236;2023-08-07T02:33:29;14.00;99.90
44277;DHT22;29973;43.742;1.236;2023-08-07T02:35:56;14.00;99.90
44277;DHT22;29973;43.742;1.236;2023-08-07T02:38:22;13.80;99.90
44277;DHT22;29973;43.742;1.236;2023-08-07T02:40:48;13.60;99.90
44277;DHT22;29973;43.742;1.236;2023-08-07T02:43:13;13.50;99.90
44277;DHT22;29973;43.742;1.236;2023-08-07T02:45:39;13.50;99.90
44277;DHT22;29973;43.742;1.236;2023-08-07T02:48:05;13.50;99.90
44277;DHT22;29973;43.742;1.236;2023-08-07T02:50:31;13.50;99.90
44277;DHT22;29973;43.742;1.236;2023-08-07T02:52:59;13.30;99.90
44277;DHT22;29973;43.742;1.236;2023-08-07T02:55:24;13.30;99.90
44277;DHT22;29973;43.742;1.236;2023-08-07T02:57:50;13.20;99.90
44277;DHT22;29973;43.742;1.236;2023-08-07T03:00:16;13.00;99.90
44277;DHT22;29973;43.742;1.236;2023-08-07T03:02:42;13.00;99.90
44277;DHT22;29973;43.742;1.236;2023-08-07T03:05:08;13.00;99.90
44277;DHT22;29973;43.742;1.236;2023-08-07T03:07:33;12.80;99.90
44277;DHT22;29973;43.742;1.236;2023-08-07T03:09:59;12.70;99.90
44277;DHT22;29973;43.742;1.236;2023-08-07T03:12:25;12.80;99.90
44277;DHT22;29973;43.742;1.236;2023-08-07T03:14:50;12.70;99.90
44277;DHT22;29973;43.742;1.236;2023-08-07T03:17:16;12.60;99.90
44277;DHT22;29973;43.742;1.236;2023-08-07T03:19:43;12.50;99.90
44277;DHT22;29973;43.742;1.236;2023-08-07T03:22:08;12.50;99.90
44277;DHT22;29973;43.742;1.236;2023-08-07T03:24:34;12.40;99.90
44277;DHT22;29973;43.742;1.236;2023-08-07T03:27:00;12.30;99.90
44277;DHT22;29973;43.742;1.236;2023-08-07T03:29:26;12.30;99.90
44277;DHT22;29973;43.742;1.236;2023-08-07T03:31:51;12.30;99.90
44277;DHT22;29973;43.742;1.236;2023-08-07T03:34:18;12.20;99.90
44277;DHT22;29973;43.742;1.236;2023-08-07T03:36:44;12.20;99.90
44277;DHT22;29973;43.742;1.236;2023-08-07T03:39:10;12.20;99.90
44277;DHT22;29973;43.742;1.236;2023-08-07T03:41:37;12.10;99.90
44277;DHT22;29973;43.742;1.236;2023-08-07T03:44:03;12.00;99.90
44277;DHT22;29973;43.742;1.236;2023-08-07T03:46:29;12.00;99.90
44277;DHT22;29973;43.742;1.236;2023-08-07T03:48:55;12.00;99.90
44277;DHT22;29973;43.742;1.236;2023-08-07T03:51:20;11.90;99.90
44277;DHT22;29973;43.742;1.236;2023-08-07T03:53:46;11.80;99.90
44277;DHT22;29973;43.742;1.236;2023-08-07T03:56:12;11.60;99.90
44277;DHT22;29973;43.742;1.236;2023-08-07T03:58:38;11.70;99.90
44277;DHT22;29973;43.742;1.236;2023-08-07T04:01:03;11.70;99.90
44277;DHT22;29973;43.742;1.236;2023-08-07T04:03:29;11.60;99.90
44277;DHT22;29973;43.742;1.236;2023-08-07T04:05:55;11.40;99.90
44277;DHT22;29973;43.742;1.236;2023-08-07T04:08:22;11.40;99.90
44277;DHT22;29973;43.742;1.236;2023-08-07T04:11:00;11.40;99.90
44277;DHT22;29973;43.742;1.236;2023-08-07T04:13:27;11.20;99.90
44277;DHT22;29973;43.742;1.236;2023-08-07T04:15:53;11.20;99.90
44277;DHT22;29973;43.742;1.236;2023-08-07T04:18:18;11.30;99.90
44277;DHT22;29973;43.742;1.236;2023-08-07T04:20:54;11.10;99.90
44277;DHT22;29973;43.742;1.236;2023-08-07T04:23:21;11.10;99.90
44277;DHT22;29973;43.742;1.236;2023-08-07T04:25:50;11.10;99.90
44277;DHT22;29973;43.742;1.236;2023-08-07T04:28:16;11.00;99.90
44277;DHT22;29973;43.742;1.236;2023-08-07T04:30:43;10.90;99.90
44277;DHT22;29973;43.742;1.236;2023-08-07T04:33:09;10.80;99.90
44277;DHT22;29973;43.742;1.236;2023-08-07T04:35:35;10.80;99.90
44277;DHT22;29973;43.742;1.236;2023-08-07T04:38:01;10.90;99.90
44277;DHT22;29973;43.742;1.236;2023-08-07T04:40:28;11.00;99.90
44277;DHT22;29973;43.742;1.236;2023-08-07T04:42:55;11.00;99.90
44277;DHT22;29973;43.742;1.236;2023-08-07T04:45:21;10.70;99.90
44277;DHT22;29973;43.742;1.236;2023-08-07T04:47:47;10.60;99.90
44277;DHT22;29973;43.742;1.236;2023-08-07T04:50:13;10.50;99.90
44277;DHT22;29973;43.742;1.236;2023-08-07T04:52:38;10.60;99.90
44277;DHT22;29973;43.742;1.236;2023-08-07T04:55:04;10.50;99.90
44277;DHT22;29973;43.742;1.236;2023-08-07T04:57:30;10.60;99.90
44277;DHT22;29973;43.742;1.236;2023-08-07T04:59:56;10.60;99.90
44277;DHT22;29973;43.742;1.236;2023-08-07T05:02:22;10.70;99.90
44277;DHT22;29973;43.742;1.236;2023-08-07T05:04:48;10.70;99.90
44277;DHT22;29973;43.742;1.236;2023-08-07T05:07:13;10.70;99.90
44277;DHT22;29973;43.742;1.236;2023-08-07T05:09:40;11.00;99.90
44277;DHT22;29973;43.742;1.236;2023-08-07T05:12:06;11.00;99.90
44277;DHT22;29973;43.742;1.236;2023-08-07T05:14:32;10.80;99.90
44277;DHT22;29973;43.742;1.236;2023-08-07T05:16:58;11.00;99.90
44277;DHT22;29973;43.742;1.236;2023-08-07T05:19:25;11.00;99.90
44277;DHT22;29973;43.742;1.236;2023-08-07T05:21:51;11.10;99.90
44277;DHT22;29973;43.742;1.236;2023-08-07T05:24:20;11.10;99.90
44277;DHT22;29973;43.742;1.236;2023-08-07T05:26:45;11.40;99.90
44277;DHT22;29973;43.742;1.236;2023-08-07T05:29:11;11.30;99.90
44277;DHT22;29973;43.742;1.236;2023-08-07T05:31:37;11.20;99.90
44277;DHT22;29973;43.742;1.236;2023-08-07T05:34:03;11.70;99.90
44277;DHT22;29973;43.742;1.236;2023-08-07T05:36:28;11.70;99.90
44277;DHT22;29973;43.742;1.236;2023-08-07T05:38:57;11.60;99.90
44277;DHT22;29973;43.742;1.236;2023-08-07T05:41:22;11.70;99.90
44277;DHT22;29973;43.742;1.236;2023-08-07T05:43:48;11.90;99.90
44277;DHT22;29973;43.742;1.236;2023-08-07T05:46:14;12.10;99.90
44277;DHT22;29973;43.742;1.236;2023-08-07T05:48:40;12.20;99.90
44277;DHT22;29973;43.742;1.236;2023-08-07T05:51:06;12.30;99.90
44277;DHT22;29973;43.742;1.236;2023-08-07T05:53:34;12.50;99.90
44277;DHT22;29973;43.742;1.236;2023-08-07T05:56:00;12.60;99.90
44277;DHT22;29973;43.742;1.236;2023-08-07T05:58:26;12.70;99.90
44277;DHT22;29973;43.742;1.236;2023-08-07T06:00:52;12.90;99.90
44277;DHT22;29973;43.742;1.236;2023-08-07T06:03:18;13.00;99.90
44277;DHT22;29973;43.742;1.236;2023-08-07T06:05:44;13.10;99.90
44277;DHT22;29973;43.742;1.236;2023-08-07T06:08:09;13.20;99.90
44277;DHT22;29973;43.742;1.236;2023-08-07T06:10:35;13.30;99.90
44277;DHT22;29973;43.742;1.236;2023-08-07T06:13:01;13.40;99.90
44277;DHT22;29973;43.742;1.236;2023-08-07T06:15:28;13.50;99.90
44277;DHT22;29973;43.742;1.236;2023-08-07T06:17:54;13.60;99.90
44277;DHT22;29973;43.742;1.236;2023-08-07T06:20:20;13.80;99.90
44277;DHT22;29973;43.742;1.236;2023-08-07T06:22:46;13.90;99.90
44277;DHT22;29973;43.742;1.236;2023-08-07T06:25:12;14.10;99.90
44277;DHT22;29973;43.742;1.236;2023-08-07T06:27:38;14.20;99.90
44277;DHT22;29973;43.742;1.236;2023-08-07T06:30:04;14.30;99.90
44277;DHT22;29973;43.742;1.236;2023-08-07T06:32:31;14.40;99.90
44277;DHT22;29973;43.742;1.236;2023-08-07T06:34:56;14.50;99.90
44277;DHT22;29973;43.742;1.236;2023-08-07T06:37:22;14.60;99.90
44277;DHT22;29973;43.742;1.236;2023-08-07T06:39:48;14.80;99.90
44277;DHT22;29973;43.742;1.236;2023-08-07T06:42:13;14.90;99.90
44277;DHT22;29973;43.742;1.236;2023-08-07T06:44:39;15.00;99.90
44277;DHT22;29973;43.742;1.236;2023-08-07T06:47:05;15.00;99.90
44277;DHT22;29973;43.742;1.236;2023-08-07T06:49:31;15.20;99.90
44277;DHT22;29973;43.742;1.236;2023-08-07T06:51:58;15.20;99.90
44277;DHT22;29973;43.742;1.236;2023-08-07T06:54:24;15.40;99.90
44277;DHT22;29973;43.742;1.236;2023-08-07T06:56:50;15.50;99.90
44277;DHT22;29973;43.742;1.236;2023-08-07T06:59:15;15.60;99.90
44277;DHT22;29973;43.742;1.236;2023-08-07T07:01:41;15.80;99.90
44277;DHT22;29973;43.742;1.236;2023-08-07T07:04:07;15.80;99.90
44277;DHT22;29973;43.742;1.236;2023-08-07T07:06:37;15.80;99.90
44277;DHT22;29973;43.742;1.236;2023-08-07T07:09:03;15.90;99.90
44277;DHT22;29973;43.742;1.236;2023-08-07T07:11:30;16.20;99.90
44277;DHT22;29973;43.742;1.236;2023-08-07T07:13:55;16.30;99.90
44277;DHT22;29973;43.742;1.236;2023-08-07T07:16:21;16.40;99.90
44277;DHT22;29973;43.742;1.236;2023-08-07T07:18:50;16.40;99.90
44277;DHT22;29973;43.742;1.236;2023-08-07T07:21:17;16.50;99.90
44277;DHT22;29973;43.742;1.236;2023-08-07T07:23:43;16.50;99.90
44277;DHT22;29973;43.742;1.236;2023-08-07T07:26:08;16.70;99.90
44277;DHT22;29973;43.742;1.236;2023-08-07T07:28:34;16.90;99.90
44277;DHT22;29973;43.742;1.236;2023-08-07T07:31:00;16.90;99.90
44277;DHT22;29973;43.742;1.236;2023-08-07T07:33:26;17.00;99.90
44277;DHT22;29973;43.742;1.236;2023-08-07T07:35:51;17.20;99.90
44277;DHT22;29973;43.742;1.236;2023-08-07T07:38:17;17.10;99.90
44277;DHT22;29973;43.742;1.236;2023-08-07T07:40:43;17.30;99.90
44277;DHT22;29973;43.742;1.236;2023-08-07T07:43:09;17.50;99.90
44277;DHT22;29973;43.742;1.236;2023-08-07T07:45:34;17.80;99.90
44277;DHT22;29973;43.742;1.236;2023-08-07T07:48:02;17.80;99.90
44277;DHT22;29973;43.742;1.236;2023-08-07T07:50:28;17.70;99.90
44277;DHT22;29973;43.742;1.236;2023-08-07T07:52:54;17.80;99.90
44277;DHT22;29973;43.742;1.236;2023-08-07T07:55:20;18.00;99.90
44277;DHT22;29973;43.742;1.236;2023-08-07T07:57:45;18.10;99.90
44277;DHT22;29973;43.742;1.236;2023-08-07T08:00:12;18.20;99.90
44277;DHT22;29973;43.742;1.236;2023-08-07T08:02:39;18.40;99.90
44277;DHT22;29973;43.742;1.236;2023-08-07T08:05:07;18.60;99.90
44277;DHT22;29973;43.742;1.236;2023-08-07T08:07:33;18.60;99.90
44277;DHT22;29973;43.742;1.236;2023-08-07T08:10:00;18.60;99.90
44277;DHT22;29973;43.742;1.236;2023-08-07T08:12:26;18.60;99.90
44277;DHT22;29973;43.742;1.236;2023-08-07T08:14:52;18.90;99.90
44277;DHT22;29973;43.742;1.236;2023-08-07T08:17:17;19.20;99.90
44277;DHT22;29973;43.742;1.236;2023-08-07T08:19:43;19.10;99.90
44277;DHT22;29973;43.742;1.236;2023-08-07T08:22:09;19.10;99.90
44277;DHT22;29973;43.742;1.236;2023-08-07T08:24:34;19.10;99.90
44277;DHT22;29973;43.742;1.236;2023-08-07T08:27:00;19.00;99.90
44277;DHT22;29973;43.742;1.236;2023-08-07T08:29:26;19.10;99.90
44277;DHT22;29973;43.742;1.236;2023-08-07T08:31:53;19.40;99.90
44277;DHT22;29973;43.742;1.236;2023-08-07T08:34:20;19.50;99.90
44277;DHT22;29973;43.742;1.236;2023-08-07T08:36:47;19.50;99.90
44277;DHT22;29973;43.742;1.236;2023-08-07T08:39:13;19.70;99.90
44277;DHT22;29973;43.742;1.236;2023-08-07T08:41:40;19.50;99.90
44277;DHT22;29973;43.742;1.236;2023-08-07T08:44:07;19.30;99.90
44277;DHT22;29973;43.742;1.236;2023-08-07T08:46:36;19.30;99.90
44277;DHT22;29973;43.742;1.236;2023-08-07T08:49:04;19.60;99.90
44277;DHT22;29973;43.742;1.236;2023-08-07T08:51:31;19.50;99.90
44277;DHT22;29973;43.742;1.236;2023-08-07T08:53:58;19.90;99.90
44277;DHT22;29973;43.742;1.236;2023-08-07T08:56:24;20.00;99.90
44277;DHT22;29973;43.742;1.236;2023-08-07T08:58:51;20.40;99.90
44277;DHT22;29973;43.742;1.236;2023-08-07T09:01:20;20.50;99.90
44277;DHT22;29973;43.742;1.236;2023-08-07T09:03:47;20.50;99.90
44277;DHT22;29973;43.742;1.236;2023-08-07T09:06:13;20.60;99.90
44277;DHT22;29973;43.742;1.236;2023-08-07T09:08:42;20.50;99.90
44277;DHT22;29973;43.742;1.236;2023-08-07T09:11:09;20.60;99.90
44277;DHT22;29973;43.742;1.236;2023-08-07T09:13:37;20.70;99.90
44277;DHT22;29973;43.742;1.236;2023-08-07T09:16:04;20.20;99.90
44277;DHT22;29973;43.742;1.236;2023-08-07T09:18:30;20.50;99.90
44277;DHT22;29973;43.742;1.236;2023-08-07T09:20:56;20.80;99.90
44277;DHT22;29973;43.742;1.236;2023-08-07T09:23:25;20.50;99.90
44277;DHT22;29973;43.742;1.236;2023-08-07T09:26:01;20.50;99.90
44277;DHT22;29973;43.742;1.236;2023-08-07T09:28:28;20.70;99.90
44277;DHT22;29973;43.742;1.236;2023-08-07T09:30:55;20.70;99.90
44277;DHT22;29973;43.742;1.236;2023-08-07T09:33:28;20.90;99.90
44277;DHT22;29973;43.742;1.236;2023-08-07T09:36:03;20.60;99.90
44277;DHT22;29973;43.742;1.236;2023-08-07T09:38:30;20.70;99.90
44277;DHT22;29973;43.742;1.236;2023-08-07T09:40:59;20.80;99.90
44277;DHT22;29973;43.742;1.236;2023-08-07T09:43:25;21.10;99.90
44277;DHT22;29973;43.742;1.236;2023-08-07T09:45:50;21.30;99.90
44277;DHT22;29973;43.742;1.236;2023-08-07T09:48:22;21.20;99.90
44277;DHT22;29973;43.742;1.236;2023-08-07T09:50:49;20.90;99.90
44277;DHT22;29973;43.742;1.236;2023-08-07T09:53:14;21.00;99.90
44277;DHT22;29973;43.742;1.236;2023-08-07T09:55:40;20.90;99.90
44277;DHT22;29973;43.742;1.236;2023-08-07T09:58:08;21.20;99.90
44277;DHT22;29973;43.742;1.236;2023-08-07T10:00:34;21.40;99.90
44277;DHT22;29973;43.742;1.236;2023-08-07T10:03:01;21.70;99.90
44277;DHT22;29973;43.742;1.236;2023-08-07T10:05:27;21.00;99.90
44277;DHT22;29973;43.742;1.236;2023-08-07T10:07:54;21.20;99.90
44277;DHT22;29973;43.742;1.236;2023-08-07T10:10:20;21.40;99.90
44277;DHT22;29973;43.742;1.236;2023-08-07T10:12:46;21.80;99.90
44277;DHT22;29973;43.742;1.236;2023-08-07T10:15:14;21.70;99.50
44277;DHT22;29973;43.742;1.236;2023-08-07T10:17:41;21.20;99.30
44277;DHT22;29973;43.742;1.236;2023-08-07T10:20:07;21.20;99.90
44277;DHT22;29973;43.742;1.236;2023-08-07T10:22:34;21.30;99.80
44277;DHT22;29973;43.742;1.236;2023-08-07T10:25:06;21.70;99.90
44277;DHT22;29973;43.742;1.236;2023-08-07T10:27:37;22.20;99.50
44277;DHT22;29973;43.742;1.236;2023-08-07T10:30:06;22.00;97.20
44277;DHT22;29973;43.742;1.236;2023-08-07T10:32:33;21.70;98.00
44277;DHT22;29973;43.742;1.236;2023-08-07T10:35:03;22.10;97.30
44277;DHT22;29973;43.742;1.236;2023-08-07T10:37:41;22.50;99.40
44277;DHT22;29973;43.742;1.236;2023-08-07T10:40:08;22.70;98.90
44277;DHT22;29973;43.742;1.236;2023-08-07T10:42:59;22.80;97.50
44277;DHT22;29973;43.742;1.236;2023-08-07T10:45:26;23.50;99.70
44277;DHT22;29973;43.742;1.236;2023-08-07T10:50:29;23.70;93.50
44277;DHT22;29973;43.742;1.236;2023-08-07T10:52:56;23.50;93.80
44277;DHT22;29973;43.742;1.236;2023-08-07T10:55:22;23.70;95.90
44277;DHT22;29973;43.742;1.236;2023-08-07T10:57:49;23.80;93.90
44277;DHT22;29973;43.742;1.236;2023-08-07T11:00:15;23.70;93.40
44277;DHT22;29973;43.742;1.236;2023-08-07T11:02:42;24.20;94.90
44277;DHT22;29973;43.742;1.236;2023-08-07T11:05:08;23.10;90.20
44277;DHT22;29973;43.742;1.236;2023-08-07T11:07:34;22.60;90.20
44277;DHT22;29973;43.742;1.236;2023-08-07T11:09:59;22.70;91.90
44277;DHT22;29973;43.742;1.236;2023-08-07T11:12:29;23.40;90.60
44277;DHT22;29973;43.742;1.236;2023-08-07T11:14:57;23.70;91.60
44277;DHT22;29973;43.742;1.236;2023-08-07T11:17:28;24.20;89.00
44277;DHT22;29973;43.742;1.236;2023-08-07T11:19:55;24.20;89.30
44277;DHT22;29973;43.742;1.236;2023-08-07T11:22:21;23.70;87.80
44277;DHT22;29973;43.742;1.236;2023-08-07T11:24:47;24.60;88.30
44277;DHT22;29973;43.742;1.236;2023-08-07T11:27:13;25.50;84.10
44277;DHT22;29973;43.742;1.236;2023-08-07T11:29:39;25.00;82.40
44277;DHT22;29973;43.742;1.236;2023-08-07T11:32:05;26.50;81.40
44277;DHT22;29973;43.742;1.236;2023-08-07T11:34:32;28.50;75.30
44277;DHT22;29973;43.742;1.236;2023-08-07T11:36:57;28.10;65.80
44277;DHT22;29973;43.742;1.236;2023-08-07T11:39:24;28.50;61.30
44277;DHT22;29973;43.742;1.236;2023-08-07T11:41:53;29.70;59.40
44277;DHT22;29973;43.742;1.236;2023-08-07T11:44:19;30.20;59.90
44277;DHT22;29973;43.742;1.236;2023-08-07T11:46:45;30.40;62.10
44277;DHT22;29973;43.742;1.236;2023-08-07T11:49:11;30.90;58.50
44277;DHT22;29973;43.742;1.236;2023-08-07T11:51:37;30.90;53.40
44277;DHT22;29973;43.742;1.236;2023-08-07T11:54:03;30.80;53.60
44277;DHT22;29973;43.742;1.236;2023-08-07T11:56:29;30.10;56.90
44277;DHT22;29973;43.742;1.236;2023-08-07T11:58:56;29.50;50.90
44277;DHT22;29973;43.742;1.236;2023-08-07T12:01:24;30.80;50.00
44277;DHT22;29973;43.742;1.236;2023-08-07T12:03:56;31.90;50.00
44277;DHT22;29973;43.742;1.236;2023-08-07T12:06:23;30.60;49.80
44277;DHT22;29973;43.742;1.236;2023-08-07T12:08:50;30.80;51.80
44277;DHT22;29973;43.742;1.236;2023-08-07T12:11:19;31.10;53.50
44277;DHT22;29973;43.742;1.236;2023-08-07T12:13:46;27.80;47.50
44277;DHT22;29973;43.742;1.236;2023-08-07T12:16:14;28.90;51.00
44277;DHT22;29973;43.742;1.236;2023-08-07T12:18:51;29.80;53.80
44277;DHT22;29973;43.742;1.236;2023-08-07T12:21:20;30.90;49.20
44277;DHT22;29973;43.742;1.236;2023-08-07T12:23:46;31.00;47.10
44277;DHT22;29973;43.742;1.236;2023-08-07T12:26:13;30.70;52.80
44277;DHT22;29973;43.742;1.236;2023-08-07T12:28:39;32.60;47.00
44277;DHT22;29973;43.742;1.236;2023-08-07T12:31:05;33.40;48.50
44277;DHT22;29973;43.742;1.236;2023-08-07T12:33:32;32.60;53.40
44277;DHT22;29973;43.742;1.236;2023-08-07T12:35:58;32.40;45.10
44277;DHT22;29973;43.742;1.236;2023-08-07T12:38:24;32.90;43.50
44277;DHT22;29973;43.742;1.236;2023-08-07T12:40:50;34.00;43.60
44277;DHT22;29973;43.742;1.236;2023-08-07T12:43:16;34.30;42.90
44277;DHT22;29973;43.742;1.236;2023-08-07T12:45:42;32.20;43.70
44277;DHT22;29973;43.742;1.236;2023-08-07T12:48:08;32.80;42.40
44277;DHT22;29973;43.742;1.236;2023-08-07T12:50:34;32.80;41.70
44277;DHT22;29973;43.742;1.236;2023-08-07T12:53:00;33.40;40.60
44277;DHT22;29973;43.742;1.236;2023-08-07T12:55:26;33.70;38.90
44277;DHT22;29973;43.742;1.236;2023-08-07T12:57:53;34.40;38.40
44277;DHT22;29973;43.742;1.236;2023-08-07T13:00:19;34.50;38.60
44277;DHT22;29973;43.742;1.236;2023-08-07T13:02:47;33.50;39.80
44277;DHT22;29973;43.742;1.236;2023-08-07T13:05:13;32.10;43.20
44277;DHT22;29973;43.742;1.236;2023-08-07T13:07:40;31.70;43.90
44277;DHT22;29973;43.742;1.236;2023-08-07T13:10:07;32.90;39.50
44277;DHT22;29973;43.742;1.236;2023-08-07T13:12:35;33.00;38.30
44277;DHT22;29973;43.742;1.236;2023-08-07T13:15:02;33.70;35.20
44277;DHT22;29973;43.742;1.236;2023-08-07T13:17:28;35.50;37.20
44277;DHT22;29973;43.742;1.236;2023-08-07T13:19:54;35.10;35.50
44277;DHT22;29973;43.742;1.236;2023-08-07T13:22:19;35.30;36.40
44277;DHT22;29973;43.742;1.236;2023-08-07T13:24:45;34.60;36.70
44277;DHT22;29973;43.742;1.236;2023-08-07T13:27:11;32.70;39.20
44277;DHT22;29973;43.742;1.236;2023-08-07T13:29:37;32.20;37.30
44277;DHT22;29973;43.742;1.236;2023-08-07T13:32:03;34.60;38.20
44277;DHT22;29973;43.742;1.236;2023-08-07T13:34:38;36.50;34.40
44277;DHT22;29973;43.742;1.236;2023-08-07T13:37:07;36.30;32.70
44277;DHT22;29973;43.742;1.236;2023-08-07T13:39:33;35.90;31.40
44277;DHT22;29973;43.742;1.236;2023-08-07T13:41:59;35.10;32.00
44277;DHT22;29973;43.742;1.236;2023-08-07T13:44:28;34.90;29.90
44277;DHT22;29973;43.742;1.236;2023-08-07T13:46:54;34.60;29.60
44277;DHT22;29973;43.742;1.236;2023-08-07T13:49:21;34.10;33.20
44277;DHT22;29973;43.742;1.236;2023-08-07T13:51:47;34.70;30.80
44277;DHT22;29973;43.742;1.236;2023-08-07T13:54:13;36.30;29.80
44277;DHT22;29973;43.742;1.236;2023-08-07T13:56:39;36.50;28.20
44277;DHT22;29973;43.742;1.236;2023-08-07T13:59:09;36.30;27.60
44277;DHT22;29973;43.742;1.236;2023-08-07T14:01:35;36.70;29.10
44277;DHT22;29973;43.742;1.236;2023-08-07T14:04:02;34.70;27.40
44277;DHT22;29973;43.742;1.236;2023-08-07T14:06:28;34.60;28.30
44277;DHT22;29973;43.742;1.236;2023-08-07T14:08:54;35.40;30.00
44277;DHT22;29973;43.742;1.236;2023-08-07T14:11:20;34.90;28.80
44277;DHT22;29973;43.742;1.236;2023-08-07T14:13:46;35.00;29.40
44277;DHT22;29973;43.742;1.236;2023-08-07T14:16:13;36.20;29.50
44277;DHT22;29973;43.742;1.236;2023-08-07T14:18:38;34.60;28.20
44277;DHT22;29973;43.742;1.236;2023-08-07T14:21:04;37.30;29.00
44277;DHT22;29973;43.742;1.236;2023-08-07T14:23:30;36.70;29.10
44277;DHT22;29973;43.742;1.236;2023-08-07T14:25:56;36.70;29.00
44277;DHT22;29973;43.742;1.236;2023-08-07T14:28:22;35.00;30.00
44277;DHT22;29973;43.742;1.236;2023-08-07T14:30:48;35.30;32.80
44277;DHT22;29973;43.742;1.236;2023-08-07T14:33:14;37.60;28.00
44277;DHT22;29973;43.742;1.236;2023-08-07T14:35:40;36.50;30.00
44277;DHT22;29973;43.742;1.236;2023-08-07T14:38:06;36.80;28.20
44277;DHT22;29973;43.742;1.236;2023-08-07T14:40:32;37.50;28.40
44277;DHT22;29973;43.742;1.236;2023-08-07T14:42:58;36.70;26.00
44277;DHT22;29973;43.742;1.236;2023-08-07T14:45:24;35.60;29.60
44277;DHT22;29973;43.742;1.236;2023-08-07T14:47:50;36.50;29.60
44277;DHT22;29973;43.742;1.236;2023-08-07T14:50:16;37.30;29.70
44277;DHT22;29973;43.742;1.236;2023-08-07T14:52:45;36.30;30.20
44277;DHT22;29973;43.742;1.236;2023-08-07T14:55:10;37.50;29.50
44277;DHT22;29973;43.742;1.236;2023-08-07T14:57:36;37.90;28.70
44277;DHT22;29973;43.742;1.236;2023-08-07T15:00:02;37.60;26.40
44277;DHT22;29973;43.742;1.236;2023-08-07T15:02:29;37.10;26.10
44277;DHT22;29973;43.742;1.236;2023-08-07T15:04:54;37.50;26.40
44277;DHT22;29973;43.742;1.236;2023-08-07T15:07:20;36.00;29.60
44277;DHT22;29973;43.742;1.236;2023-08-07T15:09:46;36.60;29.40
44277;DHT22;29973;43.742;1.236;2023-08-07T15:12:15;38.10;27.90
44277;DHT22;29973;43.742;1.236;2023-08-07T15:14:41;36.80;29.10
44277;DHT22;29973;43.742;1.236;2023-08-07T15:17:07;38.10;27.40
44277;DHT22;29973;43.742;1.236;2023-08-07T15:19:33;38.40;27.10
44277;DHT22;29973;43.742;1.236;2023-08-07T15:21:58;39.00;28.40
44277;DHT22;29973;43.742;1.236;2023-08-07T15:24:24;38.10;28.00
44277;DHT22;29973;43.742;1.236;2023-08-07T15:26:50;38.90;26.90
44277;DHT22;29973;43.742;1.236;2023-08-07T15:29:15;38.10;25.40
44277;DHT22;29973;43.742;1.236;2023-08-07T15:31:41;38.80;25.10
44277;DHT22;29973;43.742;1.236;2023-08-07T15:34:07;39.20;26.20
44277;DHT22;29973;43.742;1.236;2023-08-07T15:36:32;39.40;26.00
44277;DHT22;29973;43.742;1.236;2023-08-07T15:38:58;36.40;26.00